Time;durP1;ratioP1;P1;durP2;ratioP2;P2;SDS_P1;SDS_P2;PMS_P1;PMS_P2;Temp;Humidity;BMP_temperature;BMP_pressure;BME280_temperature;BME280_humidity;BME280_pressure;Samples;Min_cycle;Max_cycle;Signal;HPM_P1;HPM_P2
2020/12/11 00:02:04;;;;;;;190.73;51.88;;;3.60;99.90;;;;;;5134855;27;20031;-83
2020/12/11 00:04:30;;;;;;;210.07;52.05;;;3.50;99.90;;;;;;5125228;27;20052;-83
2020/12/11 00:06:57;;;;;;;208.02;52.05;;;3.50;99.90;;;;;;5132777;27;20059;-84
2020/12/11 00:09:23;;;;;;;184.15;49.92;;;3.50;99.90;;;;;;5132131;27;20033;-83
2020/12/11 00:11:49;;;;;;;198.30;50.30;;;3.60;99.90;;;;;;5152343;27;20091;-83
2020/12/11 00:14:14;;;;;;;188.73;51.95;;;3.60;99.90;;;;;;5152671;27;20026;-83
2020/12/11 00:16:40;;;;;;;207.77;54.75;;;3.50;99.90;;;;;;5134918;27;20057;-83
2020/12/11 00:19:05;;;;;;;187.73;50.80;;;3.50;99.90;;;;;;5134460;27;20121;-83
2020/12/11 00:21:42;;;;;;;201.10;51.13;;;3.60;99.90;;;;;;5123925;27;20031;-83
2020/12/11 00:24:08;;;;;;;178.45;49.92;;;3.60;99.90;;;;;;5132182;27;20114;-83
2020/12/11 00:26:34;;;;;;;189.05;52.60;;;3.60;99.90;;;;;;5131727;27;20022;-83
2020/12/11 00:29:00;;;;;;;174.30;51.35;;;3.60;99.90;;;;;;5125524;27;20030;-83
2020/12/11 00:31:26;;;;;;;181.57;52.63;;;3.60;99.90;;;;;;5134687;27;20363;-83
2020/12/11 00:33:53;;;;;;;192.18;55.00;;;3.50;99.90;;;;;;5133392;27;20121;-83
2020/12/11 00:36:19;;;;;;;179.30;53.05;;;3.50;99.90;;;;;;5129116;27;20087;-82
2020/12/11 00:38:44;;;;;;;173.38;53.78;;;3.50;99.90;;;;;;5129260;27;20493;-82
2020/12/11 00:41:10;;;;;;;177.80;51.70;;;3.50;99.90;;;;;;5131810;27;20027;-83
2020/12/11 00:43:36;;;;;;;194.35;52.47;;;3.50;99.90;;;;;;5132714;27;20494;-82
2020/12/11 00:46:02;;;;;;;169.90;49.25;;;3.60;99.90;;;;;;5134158;27;20560;-82
2020/12/11 00:48:27;;;;;;;199.48;52.58;;;3.60;99.90;;;;;;5133591;27;20068;-82
2020/12/11 00:50:53;;;;;;;177.73;51.80;;;3.60;99.90;;;;;;5131408;27;20113;-83
2020/12/11 00:53:19;;;;;;;179.80;52.33;;;3.60;99.90;;;;;;5125979;27;20031;-83
2020/12/11 00:55:44;;;;;;;185.50;54.08;;;3.60;99.90;;;;;;5147714;27;20474;-83
2020/12/11 00:58:10;;;;;;;155.57;48.78;;;3.60;99.90;;;;;;5125824;27;20030;-83
2020/12/11 01:00:35;;;;;;;187.20;54.83;;;3.60;99.90;;;;;;5150562;27;20109;-83
2020/12/11 01:03:01;;;;;;;160.23;48.42;;;3.60;99.90;;;;;;5133741;27;20034;-83
2020/12/11 01:05:27;;;;;;;180.18;49.88;;;3.60;99.90;;;;;;5133286;27;20068;-83
2020/12/11 01:07:52;;;;;;;176.27;49.78;;;3.60;99.90;;;;;;5122997;27;20086;-83
2020/12/11 01:10:18;;;;;;;165.25;50.35;;;3.60;99.90;;;;;;5126179;27;20022;-83
2020/12/11 01:12:43;;;;;;;169.02;49.33;;;3.50;99.90;;;;;;5132944;27;20114;-83
2020/12/11 01:15:09;;;;;;;161.93;46.95;;;3.60;99.90;;;;;;5132607;27;20022;-83
2020/12/11 01:17:35;;;;;;;169.00;49.50;;;3.60;99.90;;;;;;5132915;27;20038;-83
2020/12/11 01:20:00;;;;;;;169.65;48.47;;;3.60;99.90;;;;;;5131628;27;20023;-81
2020/12/11 01:22:26;;;;;;;159.68;48.60;;;3.70;99.90;;;;;;5131555;27;20030;-82
2020/12/11 01:24:51;;;;;;;172.70;53.60;;;3.70;99.90;;;;;;5126623;27;20041;-83
2020/12/11 01:27:17;;;;;;;149.32;46.58;;;3.70;99.90;;;;;;5127016;27;20030;-83
2020/12/11 01:29:43;;;;;;;185.18;49.47;;;3.60;99.90;;;;;;5141633;27;20057;-83
2020/12/11 01:32:08;;;;;;;149.52;46.65;;;3.60;99.90;;;;;;5151723;27;20432;-83
2020/12/11 01:34:34;;;;;;;157.88;47.97;;;3.70;99.90;;;;;;5132218;27;20027;-82
2020/12/11 01:37:04;;;;;;;150.38;46.05;;;3.70;99.90;;;;;;5130774;27;20037;-82
2020/12/11 01:39:30;;;;;;;156.10;48.40;;;3.60;99.90;;;;;;5124875;27;20042;-82
2020/12/11 01:41:56;;;;;;;151.18;47.80;;;3.60;99.90;;;;;;5131502;27;20026;-83
2020/12/11 01:44:21;;;;;;;154.63;47.83;;;3.60;99.90;;;;;;5150335;27;20014;-83
2020/12/11 01:46:49;;;;;;;152.57;46.55;;;3.70;99.90;;;;;;5133060;27;20026;-83
2020/12/11 01:49:14;;;;;;;148.25;45.53;;;3.70;99.90;;;;;;5132556;27;20023;-83
2020/12/11 01:51:40;;;;;;;138.85;44.90;;;3.70;99.90;;;;;;5127515;27;20023;-82
2020/12/11 01:54:06;;;;;;;166.23;48.60;;;3.70;99.90;;;;;;5123321;27;20029;-82
2020/12/11 01:56:48;;;;;;;151.65;48.10;;;3.70;99.90;;;;;;5126590;27;20023;-82
2020/12/11 01:59:21;;;;;;;142.40;44.95;;;3.60;99.90;;;;;;5122559;27;20054;-81
2020/12/11 02:01:47;;;;;;;142.20;47.17;;;3.60;99.90;;;;;;5132118;27;20019;-82
2020/12/11 02:04:13;;;;;;;153.25;51.30;;;3.60;99.90;;;;;;5128771;27;20033;-82
2020/12/11 02:06:39;;;;;;;150.98;49.50;;;3.60;99.90;;;;;;5127159;27;20050;-83
2020/12/11 02:09:05;;;;;;;142.93;45.17;;;3.70;99.90;;;;;;5122814;28;20114;-83
2020/12/11 02:11:31;;;;;;;140.57;48.78;;;3.60;99.90;;;;;;5127562;28;20047;-83
2020/12/11 02:13:56;;;;;;;141.02;46.33;;;3.50;99.90;;;;;;5128379;28;20472;-83
2020/12/11 02:16:23;;;;;;;132.07;44.45;;;3.50;99.90;;;;;;5130245;28;20023;-83
2020/12/11 02:18:50;;;;;;;146.07;46.60;;;3.60;99.90;;;;;;5128536;28;20113;-83
2020/12/11 02:21:17;;;;;;;155.45;48.60;;;3.50;99.90;;;;;;5120814;28;20028;-82
2020/12/11 02:23:43;;;;;;;126.63;43.85;;;3.60;99.90;;;;;;5126060;28;20073;-82
2020/12/11 02:26:10;;;;;;;132.45;45.42;;;3.60;99.90;;;;;;5127208;28;20439;-82
2020/12/11 02:28:36;;;;;;;144.63;47.58;;;3.60;99.90;;;;;;5130127;28;20428;-82
2020/12/11 02:31:03;;;;;;;136.10;48.03;;;3.60;99.90;;;;;;5127183;28;20029;-82
2020/12/11 02:33:28;;;;;;;140.85;47.95;;;3.60;99.90;;;;;;5128739;28;20031;-82
2020/12/11 02:35:55;;;;;;;138.57;44.10;;;3.60;99.90;;;;;;5127966;28;20437;-83
2020/12/11 02:38:20;;;;;;;141.50;46.58;;;3.60;99.90;;;;;;5127505;28;20031;-83
2020/12/11 02:40:57;;;;;;;132.70;44.38;;;3.70;99.90;;;;;;5119290;27;20034;-83
2020/12/11 02:43:23;;;;;;;128.23;43.97;;;3.60;99.90;;;;;;5126003;27;20038;-83
2020/12/11 02:45:51;;;;;;;115.38;40.97;;;3.60;99.90;;;;;;5132574;27;20023;-83
2020/12/11 02:48:17;;;;;;;113.03;40.42;;;3.60;99.90;;;;;;5133186;27;20027;-83
2020/12/11 02:50:42;;;;;;;114.82;37.63;;;3.60;99.90;;;;;;5122652;27;20024;-83
2020/12/11 02:53:08;;;;;;;115.95;43.15;;;3.60;99.90;;;;;;5128446;27;20061;-83
2020/12/11 02:55:34;;;;;;;117.75;40.33;;;3.60;99.90;;;;;;5130356;27;20023;-83
2020/12/11 02:58:00;;;;;;;107.50;36.33;;;3.50;99.90;;;;;;5109819;28;20464;-83
2020/12/11 03:00:26;;;;;;;125.32;42.47;;;3.60;99.90;;;;;;5128028;27;20089;-83
2020/12/11 03:02:52;;;;;;;104.38;40.65;;;3.60;99.90;;;;;;5132079;27;20121;-83
2020/12/11 03:05:17;;;;;;;128.30;42.50;;;3.60;99.90;;;;;;5131029;27;20023;-83
2020/12/11 03:07:43;;;;;;;135.15;44.45;;;3.50;99.90;;;;;;5131052;27;20043;-83
2020/12/11 03:10:09;;;;;;;131.77;43.42;;;3.60;99.90;;;;;;5130505;27;20493;-83
2020/12/11 03:12:34;;;;;;;123.65;42.05;;;3.50;99.90;;;;;;5132042;27;20479;-83
2020/12/11 03:15:00;;;;;;;121.93;42.47;;;3.40;99.90;;;;;;5102469;27;20041;-83
2020/12/11 03:17:26;;;;;;;134.10;42.47;;;3.50;99.90;;;;;;5133364;27;20032;-83
2020/12/11 03:19:51;;;;;;;117.65;39.60;;;3.50;99.90;;;;;;5131598;27;20031;-83
2020/12/11 03:22:17;;;;;;;116.20;42.65;;;3.50;99.90;;;;;;5128556;27;20027;-83
2020/12/11 03:24:43;;;;;;;125.07;43.45;;;3.40;99.90;;;;;;5126723;27;20023;-83
2020/12/11 03:27:09;;;;;;;127.10;42.65;;;3.40;99.90;;;;;;5131647;27;20027;-83
2020/12/11 03:29:35;;;;;;;118.53;41.53;;;3.40;99.90;;;;;;5096062;27;20024;-83
2020/12/11 03:32:00;;;;;;;126.00;43.80;;;3.50;99.90;;;;;;5131474;27;20023;-84
2020/12/11 03:34:26;;;;;;;124.65;43.08;;;3.40;99.90;;;;;;5125218;27;20118;-83
2020/12/11 03:36:51;;;;;;;124.93;40.25;;;3.40;99.90;;;;;;5129102;27;20062;-83
2020/12/11 03:39:17;;;;;;;123.45;42.38;;;3.50;99.90;;;;;;5124130;27;20024;-83
2020/12/11 03:41:45;;;;;;;118.68;40.95;;;3.50;99.90;;;;;;5122453;27;20470;-83
2020/12/11 03:44:11;;;;;;;122.45;41.63;;;3.50;99.90;;;;;;5130753;27;20031;-83
2020/12/11 03:46:36;;;;;;;121.05;40.13;;;3.50;99.90;;;;;;5131743;27;20463;-83
2020/12/11 03:49:02;;;;;;;122.00;40.58;;;3.50;99.90;;;;;;5129421;27;20522;-83
2020/12/11 03:51:27;;;;;;;118.20;42.22;;;3.60;99.90;;;;;;5130157;27;20027;-83
2020/12/11 03:53:53;;;;;;;124.10;42.25;;;3.50;99.90;;;;;;5127913;27;20515;-83
2020/12/11 03:56:19;;;;;;;105.05;40.38;;;3.60;99.90;;;;;;5131069;27;20113;-82
2020/12/11 03:58:45;;;;;;;114.65;39.70;;;3.50;99.90;;;;;;5119087;27;20467;-82
2020/12/11 04:01:13;;;;;;;115.57;41.95;;;3.60;99.90;;;;;;5127486;27;20033;-83
2020/12/11 04:03:38;;;;;;;109.72;40.17;;;3.60;99.90;;;;;;5113985;27;20081;-83
2020/12/11 04:06:12;;;;;;;125.35;40.95;;;3.50;99.90;;;;;;5121902;27;20027;-84
2020/12/11 04:08:38;;;;;;;108.47;40.95;;;3.50;99.90;;;;;;5128549;27;20068;-83
2020/12/11 04:11:12;;;;;;;121.22;40.38;;;3.50;99.90;;;;;;5129292;27;20019;-83
2020/12/11 04:13:38;;;;;;;127.78;42.85;;;3.60;99.90;;;;;;5130715;27;20051;-83
2020/12/11 04:16:04;;;;;;;115.50;41.42;;;3.60;99.90;;;;;;5117054;27;20028;-83
2020/12/11 04:18:29;;;;;;;118.65;41.13;;;3.60;99.90;;;;;;5129941;27;20027;-83
2020/12/11 04:20:56;;;;;;;112.00;41.13;;;3.60;99.90;;;;;;5129947;27;20088;-83
2020/12/11 04:23:23;;;;;;;110.35;42.13;;;3.60;99.90;;;;;;5129244;27;20035;-83
2020/12/11 04:25:48;;;;;;;113.00;39.17;;;3.60;99.90;;;;;;5128134;27;20023;-83
2020/12/11 04:28:14;;;;;;;116.13;42.13;;;3.60;99.90;;;;;;5130588;27;20031;-83
2020/12/11 04:30:40;;;;;;;120.78;39.90;;;3.60;99.90;;;;;;5129879;27;20114;-83
2020/12/11 04:33:05;;;;;;;99.85;38.50;;;3.60;99.90;;;;;;5130340;27;20035;-83
2020/12/11 04:35:31;;;;;;;106.97;40.60;;;3.60;99.90;;;;;;5117583;27;20054;-84
2020/12/11 04:37:56;;;;;;;118.90;42.05;;;3.60;99.90;;;;;;5128450;27;20034;-83
2020/12/11 04:40:22;;;;;;;102.97;38.75;;;3.60;99.90;;;;;;5118693;27;20034;-83
2020/12/11 04:42:48;;;;;;;108.03;38.58;;;3.70;99.90;;;;;;5122874;27;20031;-83
2020/12/11 04:45:14;;;;;;;105.03;42.15;;;3.70;99.90;;;;;;5117162;27;20030;-83
2020/12/11 04:47:43;;;;;;;112.13;40.78;;;3.70;99.90;;;;;;5130094;27;20019;-82
2020/12/11 04:50:15;;;;;;;112.72;41.88;;;3.70;99.90;;;;;;5123386;27;20035;-83
2020/12/11 04:52:44;;;;;;;108.22;39.95;;;3.50;99.90;;;;;;5128529;27;20031;-83
2020/12/11 04:55:20;;;;;;;102.10;36.80;;;3.60;99.90;;;;;;5127104;27;20488;-83
2020/12/11 04:57:48;;;;;;;94.88;37.35;;;3.60;99.90;;;;;;5129071;27;20026;-83
2020/12/11 05:00:16;;;;;;;103.03;38.38;;;3.60;99.90;;;;;;5130086;27;20023;-83
2020/12/11 05:02:45;;;;;;;98.85;38.85;;;3.60;99.90;;;;;;5130580;27;20403;-83
2020/12/11 05:05:12;;;;;;;97.25;35.88;;;3.60;99.90;;;;;;5127443;27;20023;-82
2020/12/11 05:07:38;;;;;;;100.05;38.95;;;3.60;99.90;;;;;;5127996;27;20538;-83
2020/12/11 05:10:06;;;;;;;92.50;35.55;;;3.60;99.90;;;;;;5119156;27;20032;-83
2020/12/11 05:12:33;;;;;;;107.80;36.67;;;3.70;99.90;;;;;;5127719;27;20051;-82
2020/12/11 05:15:06;;;;;;;100.13;39.47;;;3.70;99.90;;;;;;5127474;27;20122;-82
2020/12/11 05:17:33;;;;;;;93.22;35.40;;;3.70;99.90;;;;;;5129272;27;20020;-83
2020/12/11 05:20:00;;;;;;;84.20;33.63;;;3.70;99.90;;;;;;5127737;27;20114;-83
2020/12/11 05:22:30;;;;;;;94.28;35.13;;;3.70;99.90;;;;;;5129172;27;20070;-83
2020/12/11 05:24:57;;;;;;;83.75;33.92;;;3.70;99.90;;;;;;5124016;27;20027;-82
2020/12/11 05:27:28;;;;;;;83.63;33.35;;;3.70;99.90;;;;;;5126144;27;20068;-82
2020/12/11 05:29:57;;;;;;;86.88;32.58;;;3.60;99.90;;;;;;5137211;27;20439;-83
2020/12/11 05:32:39;;;;;;;77.72;31.65;;;3.60;99.90;;;;;;5130298;27;21807;-83
2020/12/11 05:35:22;;;;;;;83.63;32.38;;;3.70;99.90;;;;;;5120390;27;20031;-82
2020/12/11 05:37:57;;;;;;;79.75;33.75;;;3.60;99.90;;;;;;5123620;27;20417;-82
2020/12/11 05:40:44;;;;;;;82.97;33.15;;;3.60;99.90;;;;;;5123366;27;20456;-82
2020/12/11 05:43:15;;;;;;;83.68;33.25;;;3.70;99.90;;;;;;5126635;27;20398;-81
2020/12/11 05:45:57;;;;;;;75.85;31.75;;;3.70;99.90;;;;;;5122013;27;20020;-83
2020/12/11 05:48:41;;;;;;;83.28;34.20;;;3.70;99.90;;;;;;5117469;27;20035;-83
2020/12/11 05:51:15;;;;;;;79.07;32.78;;;3.70;99.90;;;;;;5116703;27;20023;-83
2020/12/11 05:53:41;;;;;;;84.55;31.90;;;3.70;99.90;;;;;;5124954;27;20356;-83
2020/12/11 05:56:06;;;;;;;77.90;31.13;;;3.70;99.90;;;;;;5122038;27;20030;-82
2020/12/11 05:58:35;;;;;;;77.82;30.85;;;3.70;99.90;;;;;;5123016;27;20066;-82
2020/12/11 06:01:02;;;;;;;84.57;32.50;;;3.70;99.90;;;;;;5125352;27;20087;-82
2020/12/11 06:03:28;;;;;;;80.10;33.00;;;3.70;99.90;;;;;;5122067;27;20043;-82
2020/12/11 06:05:59;;;;;;;74.85;32.50;;;3.70;99.90;;;;;;5124267;27;20064;-82
2020/12/11 06:08:28;;;;;;;86.82;32.72;;;3.70;99.90;;;;;;5121234;27;20110;-82
2020/12/11 06:10:54;;;;;;;86.32;33.78;;;3.70;99.90;;;;;;5118101;28;20023;-82
2020/12/11 06:13:32;;;;;;;82.72;33.08;;;3.70;99.90;;;;;;5124681;27;20030;-82
2020/12/11 06:16:00;;;;;;;75.85;32.70;;;3.70;99.90;;;;;;5121123;27;20034;-83
2020/12/11 06:18:28;;;;;;;75.50;32.33;;;3.70;99.90;;;;;;5133765;27;20023;-83
2020/12/11 06:20:55;;;;;;;85.55;32.70;;;3.70;99.90;;;;;;5118779;27;20464;-82
2020/12/11 06:23:21;;;;;;;80.13;32.55;;;3.70;99.90;;;;;;5117981;27;20046;-82
2020/12/11 06:26:01;;;;;;;76.90;31.83;;;3.70;99.90;;;;;;5127351;27;20026;-81
2020/12/11 06:28:38;;;;;;;74.70;29.30;;;3.70;99.90;;;;;;5125921;27;20487;-81
2020/12/11 06:31:17;;;;;;;79.35;32.47;;;3.70;99.90;;;;;;5102596;27;20023;-81
2020/12/11 06:33:48;;;;;;;78.65;33.28;;;3.70;99.90;;;;;;5120258;27;20038;-82
2020/12/11 06:36:14;;;;;;;;;;;3.70;99.90;;;;;;5127557;27;20019;-81
2020/12/11 06:38:41;;;;;;;64.80;27.63;;;3.70;99.90;;;;;;5123190;27;20334;-81
2020/12/11 06:41:07;;;;;;;70.80;30.48;;;3.60;99.90;;;;;;5122703;27;20049;-82
2020/12/11 06:43:40;;;;;;;81.20;29.63;;;3.60;99.90;;;;;;5125148;27;20481;-82
2020/12/11 06:46:23;;;;;;;74.90;31.02;;;3.60;99.90;;;;;;5127975;27;20122;-82
2020/12/11 06:49:12;;;;;;;74.43;30.42;;;3.70;99.90;;;;;;5128686;27;20031;-83
2020/12/11 06:51:47;;;;;;;63.28;29.25;;;3.60;99.90;;;;;;5125082;27;20030;-82
2020/12/11 06:54:21;;;;;;;64.47;25.75;;;3.50;99.90;;;;;;5127078;27;20027;-81
2020/12/11 06:56:49;;;;;;;69.57;30.17;;;3.40;99.90;;;;;;5124314;27;20385;-82
2020/12/11 06:59:28;;;;;;;61.20;28.33;;;3.40;99.90;;;;;;5119972;27;20050;-82
2020/12/11 07:02:04;;;;;;;71.03;30.42;;;3.40;99.90;;;;;;5124399;27;20034;-81
2020/12/11 07:04:48;;;;;;;60.33;28.27;;;3.40;99.90;;;;;;5125523;27;20027;-81
2020/12/11 07:07:14;;;;;;;74.85;29.75;;;3.40;99.90;;;;;;5123521;27;20126;-81
2020/12/11 07:09:45;;;;;;;66.15;29.45;;;3.30;99.90;;;;;;5127857;27;20163;-83
2020/12/11 07:12:12;;;;;;;58.78;28.02;;;3.30;99.90;;;;;;5141838;27;20051;-83
2020/12/11 07:14:38;;;;;;;49.10;21.52;;;3.40;99.90;;;;;;5128860;27;20115;-82
2020/12/11 07:17:03;;;;;;;64.60;27.85;;;3.40;99.90;;;;;;5134000;27;20035;-83
2020/12/11 07:19:36;;;;;;;63.85;29.92;;;3.40;99.90;;;;;;5128486;27;20023;-82
2020/12/11 07:22:03;;;;;;;68.53;27.20;;;3.40;99.90;;;;;;5121356;27;20080;-82
2020/12/11 07:24:30;;;;;;;64.72;27.05;;;3.30;99.90;;;;;;5122938;27;20125;-83
2020/12/11 07:27:04;;;;;;;56.17;26.58;;;3.30;99.90;;;;;;5122732;27;20019;-83
2020/12/11 07:29:29;;;;;;;65.55;28.60;;;3.40;99.90;;;;;;5124608;27;20035;-82
2020/12/11 07:31:56;;;;;;;61.35;25.05;;;3.40;99.90;;;;;;5119588;27;20085;-82
2020/12/11 07:34:27;;;;;;;63.65;27.83;;;3.40;99.90;;;;;;5141477;27;20042;-81
2020/12/11 07:36:55;;;;;;;71.43;30.90;;;3.40;99.90;;;;;;5122089;27;20027;-82
2020/12/11 07:39:26;;;;;;;62.72;28.30;;;3.40;99.90;;;;;;5116808;27;20485;-81
2020/12/11 07:41:53;;;;;;;65.60;28.58;;;3.40;99.90;;;;;;5122775;27;20043;-82
2020/12/11 07:44:29;;;;;;;67.70;28.75;;;3.40;99.90;;;;;;5123809;27;20457;-81
2020/12/11 07:46:57;;;;;;;68.63;30.17;;;3.50;99.90;;;;;;5122731;27;20043;-82
2020/12/11 07:49:44;;;;;;;64.65;29.40;;;3.40;99.90;;;;;;5125614;27;20022;-82
2020/12/11 07:52:10;;;;;;;72.57;29.98;;;3.50;99.90;;;;;;5118332;27;20093;-83
2020/12/11 07:54:41;;;;;;;67.97;28.80;;;3.40;99.90;;;;;;5119882;27;20046;-81
2020/12/11 07:57:13;;;;;;;79.70;32.10;;;3.40;99.90;;;;;;5118072;27;20023;-82
2020/12/11 07:59:40;;;;;;;82.20;32.15;;;3.40;99.90;;;;;;5119459;27;20043;-81
2020/12/11 08:02:05;;;;;;;88.45;33.35;;;3.40;99.90;;;;;;5119042;27;20035;-81
2020/12/11 08:04:36;;;;;;;95.10;33.05;;;3.50;99.90;;;;;;5117877;27;20113;-82
2020/12/11 08:07:01;;;;;;;89.38;32.13;;;3.40;99.90;;;;;;5120957;27;20058;-82
2020/12/11 08:09:32;;;;;;;72.75;29.70;;;3.40;99.90;;;;;;5115592;27;20032;-82
2020/12/11 08:12:19;;;;;;;81.03;31.90;;;3.40;99.90;;;;;;5116164;27;20087;-81
2020/12/11 08:14:45;;;;;;;92.50;34.05;;;3.40;99.90;;;;;;5123078;27;20455;-83
2020/12/11 08:17:12;;;;;;;88.93;34.50;;;3.30;99.90;;;;;;5118903;27;20494;-83
2020/12/11 08:19:39;;;;;;;78.65;32.92;;;3.40;99.90;;;;;;5119385;27;20121;-83
2020/12/11 08:22:16;;;;;;;86.70;33.88;;;3.50;99.90;;;;;;5120017;27;20103;-83
2020/12/11 08:24:43;;;;;;;96.40;36.03;;;3.50;99.90;;;;;;5121840;27;20114;-83
2020/12/11 08:27:22;;;;;;;85.68;34.08;;;3.50;99.90;;;;;;5121002;27;20034;-82
2020/12/11 08:30:05;;;;;;;84.82;33.70;;;3.40;99.90;;;;;;5119208;27;20022;-83
2020/12/11 08:32:32;;;;;;;84.28;31.73;;;3.50;99.90;;;;;;5116600;27;20027;-83
2020/12/11 08:34:57;;;;;;;89.00;32.72;;;3.50;99.90;;;;;;5118204;27;20043;-83
2020/12/11 08:37:23;;;;;;;79.95;31.17;;;3.50;99.90;;;;;;5117958;27;20055;-83
2020/12/11 08:39:49;;;;;;;80.88;32.78;;;3.50;99.90;;;;;;5120138;27;20032;-82
2020/12/11 08:42:28;;;;;;;83.40;31.42;;;3.50;99.90;;;;;;5120338;27;20507;-81
2020/12/11 08:45:18;;;;;;;85.88;32.22;;;3.40;99.90;;;;;;5115191;27;20023;-82
2020/12/11 08:50:32;;;;;;;79.22;30.65;;;3.50;99.90;;;;;;5115616;27;20582;-82
2020/12/11 08:53:01;;;;;;;84.05;32.25;;;3.50;99.90;;;;;;5096098;27;20093;-83
2020/12/11 08:55:27;;;;;;;81.55;31.27;;;3.60;99.90;;;;;;5116174;27;20107;-81
2020/12/11 08:57:53;;;;;;;92.20;36.13;;;3.50;99.90;;;;;;5119393;27;20035;-82
2020/12/11 09:00:18;;;;;;;71.07;31.15;;;3.50;99.90;;;;;;5102145;27;20119;-82
2020/12/11 09:02:44;;;;;;;71.20;24.70;;;3.50;99.90;;;;;;5115344;27;20068;-82
2020/12/11 09:05:10;;;;;;;72.30;33.25;;;3.50;99.90;;;;;;5100173;27;20118;-83
2020/12/11 09:07:36;;;;;;;75.63;31.50;;;3.50;99.90;;;;;;5101355;27;20112;-83
2020/12/11 09:10:04;;;;;;;70.50;28.92;;;3.60;99.90;;;;;;5112064;27;20034;-83
2020/12/11 09:12:29;;;;;;;69.10;28.17;;;3.50;99.90;;;;;;5117811;27;20072;-82
2020/12/11 09:14:55;;;;;;;70.05;28.23;;;3.60;99.90;;;;;;5114230;27;20657;-83
2020/12/11 09:17:21;;;;;;;68.13;30.25;;;3.60;99.90;;;;;;5117649;27;20041;-82
2020/12/11 09:19:46;;;;;;;70.32;27.45;;;3.50;99.90;;;;;;5115442;27;20551;-83
2020/12/11 09:22:12;;;;;;;65.82;29.02;;;3.50;99.90;;;;;;5115039;27;20019;-83
2020/12/11 09:24:37;;;;;;;71.45;29.30;;;3.60;99.90;;;;;;5118149;27;20035;-83
2020/12/11 09:27:05;;;;;;;71.55;27.58;;;3.60;99.90;;;;;;5118321;27;20027;-84
2020/12/11 09:29:36;;;;;;;64.75;27.35;;;3.70;99.90;;;;;;5124061;27;21512;-83
2020/12/11 09:32:04;;;;;;;;;;;3.60;99.90;;;;;;5119690;27;20046;-84
2020/12/11 09:34:32;;;;;;;68.85;26.98;;;3.70;99.90;;;;;;5117194;27;19919;-83
2020/12/11 09:37:00;;;;;;;68.03;28.42;;;3.70;99.90;;;;;;5117490;27;20046;-83
2020/12/11 09:39:26;;;;;;;67.95;28.20;;;3.80;99.90;;;;;;5114619;27;20030;-83
2020/12/11 09:42:02;;;;;;;61.85;27.30;;;3.70;99.90;;;;;;5118184;27;20035;-82
2020/12/11 09:44:42;;;;;;;70.65;29.83;;;3.80;99.90;;;;;;5118506;27;20088;-83
2020/12/11 09:49:55;;;;;;;65.07;26.38;;;3.80;99.90;;;;;;5118721;27;20059;-82
2020/12/11 09:52:30;;;;;;;58.85;27.00;;;3.90;99.90;;;;;;5119715;27;20031;-84
2020/12/11 09:54:56;;;;;;;57.72;24.98;;;3.90;99.90;;;;;;5122227;27;20038;-84
2020/12/11 09:57:23;;;;;;;64.35;28.77;;;3.90;99.90;;;;;;5118902;27;20026;-84
2020/12/11 09:59:51;;;;;;;55.65;25.23;;;3.90;99.90;;;;;;5124252;27;20023;-82
2020/12/11 10:05:03;;;;;;;53.65;24.65;;;3.90;99.90;;;;;;5124796;27;20108;-83
2020/12/11 10:07:29;;;;;;;59.33;27.50;;;4.00;99.90;;;;;;5130141;27;20099;-84
2020/12/11 10:09:55;;;;;;;65.10;28.80;;;4.00;99.90;;;;;;5122279;27;20084;-83
2020/12/11 10:12:23;;;;;;;61.33;25.75;;;4.10;99.90;;;;;;5123371;27;20038;-84
2020/12/11 10:14:56;;;;;;;50.47;21.60;;;4.10;99.90;;;;;;5126386;28;21548;-84
2020/12/11 10:17:22;;;;;;;70.35;30.58;;;4.10;99.90;;;;;;5127806;28;20027;-84
2020/12/11 10:19:48;;;;;;;50.42;25.10;;;4.20;99.90;;;;;;5125269;28;20031;-84
2020/12/11 10:22:14;;;;;;;54.90;23.27;;;4.20;99.90;;;;;;5125264;28;20023;-84
2020/12/11 10:24:40;;;;;;;47.75;24.80;;;4.20;99.90;;;;;;5120292;28;20024;-84
2020/12/11 10:27:05;;;;;;;47.63;23.92;;;4.10;99.90;;;;;;5120444;27;20080;-84
2020/12/11 10:29:31;;;;;;;53.15;25.42;;;4.20;99.90;;;;;;5121984;27;20027;-84
2020/12/11 10:31:57;;;;;;;52.65;24.67;;;4.20;99.90;;;;;;5117257;27;20027;-84
2020/12/11 10:34:22;;;;;;;50.33;23.75;;;4.20;99.90;;;;;;5118144;27;20072;-83
2020/12/11 10:36:48;;;;;;;48.30;22.92;;;4.20;99.90;;;;;;5117600;27;20024;-82
2020/12/11 10:39:13;;;;;;;56.05;24.58;;;4.20;99.90;;;;;;5114471;28;20356;-82
2020/12/11 10:41:39;;;;;;;49.17;23.20;;;4.20;99.90;;;;;;5115839;28;20031;-84
2020/12/11 10:44:06;;;;;;;56.22;24.35;;;4.20;99.90;;;;;;5116977;28;20039;-84
2020/12/11 10:46:32;;;;;;;50.28;24.27;;;4.20;99.90;;;;;;5119113;28;20054;-84
2020/12/11 10:48:58;;;;;;;51.13;24.67;;;4.20;99.90;;;;;;5118094;28;20049;-83
2020/12/11 10:51:24;;;;;;;53.40;24.42;;;4.20;99.90;;;;;;5117537;27;20050;-84
2020/12/11 10:53:50;;;;;;;51.63;23.25;;;4.30;99.90;;;;;;5118851;27;20395;-84
2020/12/11 10:56:19;;;;;;;44.88;22.70;;;4.20;99.90;;;;;;5113488;27;20023;-84
2020/12/11 10:58:45;;;;;;;57.42;26.13;;;4.20;99.90;;;;;;5115417;27;20117;-84
2020/12/11 11:01:12;;;;;;;54.65;24.58;;;4.20;99.90;;;;;;5117429;27;20023;-83
2020/12/11 11:03:38;;;;;;;55.35;23.10;;;4.20;99.90;;;;;;5119999;27;20039;-85
2020/12/11 11:06:21;;;;;;;44.80;22.58;;;4.20;99.90;;;;;;5117774;27;20159;-84
2020/12/11 11:09:13;;;;;;;45.28;22.92;;;4.30;99.90;;;;;;5118227;27;20027;-84
2020/12/11 11:11:56;;;;;;;44.75;23.35;;;4.30;99.90;;;;;;5129907;27;20297;-84
2020/12/11 11:19:31;;;;;;;48.75;23.17;;;4.20;99.90;;;;;;5123846;27;20520;-84
2020/12/11 11:22:27;;;;;;;46.85;24.08;;;4.30;99.90;;;;;;5128407;27;20424;-83
2020/12/11 11:27:37;;;;;;;44.78;22.85;;;4.30;99.90;;;;;;5128854;27;20027;-83
2020/12/11 11:30:03;;;;;;;39.47;19.08;;;4.30;99.90;;;;;;5121775;27;20046;-83
2020/12/11 11:32:29;;;;;;;42.20;21.58;;;4.40;99.90;;;;;;5120945;27;20088;-82
2020/12/11 11:34:55;;;;;;;46.30;23.08;;;4.30;99.90;;;;;;5117687;27;20035;-83
2020/12/11 11:37:24;;;;;;;51.08;24.67;;;4.30;99.90;;;;;;5127116;27;20096;-83
2020/12/11 11:39:49;;;;;;;47.88;22.60;;;4.40;99.90;;;;;;5119484;27;20404;-83
2020/12/11 11:42:15;;;;;;;46.42;23.17;;;4.50;99.90;;;;;;5115211;27;20100;-82
2020/12/11 11:47:10;;;;;;;52.17;23.58;;;4.50;99.90;;;;;;5125809;27;20050;-83
2020/12/11 11:54:30;;;;;;;49.20;22.83;;;4.50;99.90;;;;;;5124238;27;20121;-83
2020/12/11 11:56:59;;;;;;;50.97;23.48;;;4.50;99.90;;;;;;5121259;27;20031;-83
2020/12/11 11:59:25;;;;;;;46.22;19.27;;;4.50;99.90;;;;;;5124789;27;20074;-84
2020/12/11 12:01:54;;;;;;;43.63;20.83;;;4.60;99.90;;;;;;5120163;27;20031;-84
2020/12/11 12:04:23;;;;;;;39.22;19.70;;;4.50;99.90;;;;;;5121809;27;20136;-82
2020/12/11 12:06:49;;;;;;;46.50;22.77;;;4.50;99.90;;;;;;5125636;27;20107;-82
2020/12/11 12:09:17;;;;;;;43.13;21.10;;;4.50;99.90;;;;;;5124701;27;20030;-82
2020/12/11 12:11:47;;;;;;;38.78;20.23;;;4.60;99.90;;;;;;5108138;27;20050;-84
2020/12/11 12:14:13;;;;;;;47.30;19.92;;;4.60;99.90;;;;;;5143524;27;20169;-84
2020/12/11 12:16:41;;;;;;;45.35;22.75;;;4.60;99.90;;;;;;5145215;27;20042;-84
2020/12/11 12:19:11;;;;;;;46.95;20.70;;;4.70;99.90;;;;;;5113460;27;20458;-83
2020/12/11 12:22:05;;;;;;;40.20;21.23;;;4.70;99.90;;;;;;5128752;27;20030;-85
2020/12/11 12:29:35;;;;;;;41.70;21.80;;;4.80;99.90;;;;;;5143265;27;20126;-83
2020/12/11 12:32:08;;;;;;;47.53;21.55;;;4.80;99.90;;;;;;5122638;27;20122;-83
2020/12/11 12:45:11;;;;;;;39.60;18.38;;;4.80;99.90;;;;;;5138812;27;20119;-84
2020/12/11 12:47:38;;;;;;;45.40;23.02;;;4.80;99.90;;;;;;5121889;27;20090;-82
2020/12/11 12:50:06;;;;;;;44.45;22.35;;;4.80;99.90;;;;;;5119911;27;20033;-83
2020/12/11 12:52:32;;;;;;;57.38;23.23;;;4.80;99.90;;;;;;5139856;27;20030;-83
2020/12/11 12:54:57;;;;;;;43.03;21.85;;;4.90;99.90;;;;;;5124253;27;20019;-83
2020/12/11 12:57:31;;;;;;;47.08;21.38;;;5.00;99.90;;;;;;5126075;27;20015;-83
2020/12/11 13:00:18;;;;;;;47.92;22.08;;;4.90;99.90;;;;;;5107306;27;20031;-82
2020/12/11 13:05:12;;;;;;;50.55;21.92;;;5.00;99.90;;;;;;5126756;27;20023;-83
2020/12/11 13:07:38;;;;;;;47.47;21.90;;;4.90;99.90;;;;;;5127893;27;20075;-83
2020/12/11 13:10:06;;;;;;;53.08;22.63;;;4.90;99.90;;;;;;5123296;27;20023;-83
2020/12/11 13:12:31;;;;;;;47.83;21.13;;;4.90;99.90;;;;;;5121366;27;20089;-83
2020/12/11 13:14:57;;;;;;;46.50;22.13;;;5.00;99.90;;;;;;5126157;27;20035;-83
2020/12/11 13:17:23;;;;;;;51.15;23.13;;;4.80;99.90;;;;;;5121303;27;20069;-83
2020/12/11 13:19:49;;;;;;;46.78;22.38;;;4.80;99.90;;;;;;5124134;27;20022;-83
2020/12/11 13:27:29;;;;;;;57.85;23.13;;;4.80;99.90;;;;;;5138968;27;20079;-83